Time;durP1;ratioP1;P1;durP2;ratioP2;P2;SDS_P1;SDS_P2;PMS_P1;PMS_P2;Temp;Humidity;BMP_temperature;BMP_pressure;BME280_temperature;BME280_humidity;BME280_pressure;Samples;Min_cycle;Max_cycle;Signal;HPM_P1;HPM_P2
2022/12/26 00:00:15;;;;;;;;;;;;;;;27.42;26.14;101776.41;5076580;28;1913;-12
2022/12/26 00:02:40;;;;;;;;;;;;;;;26.17;28.38;101777.00;5077201;28;1078;-12
2022/12/26 00:05:05;;;;;;;;;;;;;;;26.37;28.26;101784.16;5076645;28;1067;-12
2022/12/26 00:07:31;;;;;;;;;;;;;;;26.63;27.80;101778.84;5073017;28;1143;-12
2022/12/26 00:09:56;;;;;;;;;;;;;;;27.33;26.41;101784.47;5075847;28;1156;-12
2022/12/26 00:12:21;;;;;;;;;;;;;;;27.45;26.14;101786.88;5076501;28;1127;-12
2022/12/26 00:14:47;;;;;;;;;;;;;;;27.04;27.11;101791.03;5076442;28;1189;-12
2022/12/26 00:17:12;;;;;;;;;;;;;;;26.57;28.06;101792.09;5076451;28;1058;-12
2022/12/26 00:19:37;;;;;;;;;;;;;;;26.82;27.64;101784.22;5075987;28;1906;-12
2022/12/26 00:22:02;;;;;;;;;;;;;;;27.43;26.37;101791.59;5076655;28;1214;-12
2022/12/26 00:24:28;;;;;;;;;;;;;;;27.47;26.12;101795.69;5076065;28;1051;-12
2022/12/26 00:26:53;;;;;;;;;;;;;;;27.38;26.31;101794.78;5076279;28;1091;-12
2022/12/26 00:29:18;;;;;;;;;;;;;;;27.05;27.26;101803.50;5075952;28;1007;-12
2022/12/26 00:31:43;;;;;;;;;;;;;;;26.79;27.66;101796.19;5072137;28;1043;-12
2022/12/26 00:34:09;;;;;;;;;;;;;;;26.88;27.58;101805.19;5073693;28;1137;-12
2022/12/26 00:36:34;;;;;;;;;;;;;;;27.31;26.26;101808.06;5076537;28;1060;-12
2022/12/26 00:39:00;;;;;;;;;;;;;;;27.40;26.41;101808.97;5075831;28;1139;-11
2022/12/26 00:41:25;;;;;;;;;;;;;;;26.76;27.43;101813.53;5076352;28;1890;-12
2022/12/26 00:43:50;;;;;;;;;;;;;;;26.61;28.15;101818.63;5075627;28;1072;-12
2022/12/26 00:46:16;;;;;;;;;;;;;;;26.59;27.84;101817.09;5076091;28;1106;-12
2022/12/26 00:48:41;;;;;;;;;;;;;;;27.34;26.64;101826.66;5076620;28;1129;-12
2022/12/26 00:51:06;;;;;;;;;;;;;;;27.37;26.86;101820.97;5076123;28;1048;-12
2022/12/26 00:53:32;;;;;;;;;;;;;;;26.75;27.90;101830.75;5075771;28;1098;-12
2022/12/26 00:55:57;;;;;;;;;;;;;;;26.45;28.17;101824.72;5076059;28;1068;-12
2022/12/26 00:58:23;;;;;;;;;;;;;;;26.68;27.85;101818.00;5075925;28;1239;-12
2022/12/26 01:00:48;;;;;;;;;;;;;;;27.27;27.16;101825.63;5075809;28;1895;-12
2022/12/26 01:03:14;;;;;;;;;;;;;;;27.32;26.65;101819.75;5075872;28;1341;-12
2022/12/26 01:05:40;;;;;;;;;;;;;;;26.94;27.58;101818.09;5076517;28;1294;-12
2022/12/26 01:08:05;;;;;;;;;;;;;;;26.98;27.77;101815.91;5075334;28;1233;-12
2022/12/26 01:10:30;;;;;;;;;;;;;;;26.75;28.06;101819.94;5075935;28;1083;-12
2022/12/26 01:12:56;;;;;;;;;;;;;;;27.25;27.24;101819.53;5075864;28;1016;-12
2022/12/26 01:15:21;;;;;;;;;;;;;;;27.22;27.27;101809.03;5075301;28;1138;-12
2022/12/26 01:17:46;;;;;;;;;;;;;;;27.24;27.13;101810.56;5075636;28;1195;-12
2022/12/26 01:20:11;;;;;;;;;;;;;;;26.80;27.93;101821.31;5075417;28;1983;-12
2022/12/26 01:22:37;;;;;;;;;;;;;;;26.60;28.27;101829.56;5076054;28;1206;-12
2022/12/26 01:25:02;;;;;;;;;;;;;;;26.61;28.42;101831.28;5076027;28;1211;-12
2022/12/26 01:27:28;;;;;;;;;;;;;;;27.23;27.34;101835.88;5075874;28;1110;-12
2022/12/26 01:29:53;;;;;;;;;;;;;;;27.30;27.15;101835.25;5075621;28;1118;-12
2022/12/26 01:32:18;;;;;;;;;;;;;;;27.04;27.45;101830.69;5075097;28;1035;-12
2022/12/26 01:34:44;;;;;;;;;;;;;;;26.91;28.25;101834.56;5075421;28;1215;-12
2022/12/26 01:37:11;;;;;;;;;;;;;;;26.77;28.30;101836.84;5075566;28;1083;-12
2022/12/26 01:39:36;;;;;;;;;;;;;;;26.86;27.93;101829.66;5076015;28;2319;-12
2022/12/26 01:42:01;;;;;;;;;;;;;;;27.25;26.89;101828.47;5075275;28;1087;-12
2022/12/26 01:44:45;;;;;;;;;;;;;;;27.21;27.45;101829.78;5075542;28;1150;-12
2022/12/26 01:47:11;;;;;;;;;;;;;;;26.57;28.40;101821.78;5075430;28;1194;-12
2022/12/26 01:49:37;;;;;;;;;;;;;;;26.70;28.63;101814.16;5075915;28;1123;-12
2022/12/26 01:52:05;;;;;;;;;;;;;;;26.64;28.70;101812.91;5057143;28;1139;-12
2022/12/26 01:54:32;;;;;;;;;;;;;;;27.18;27.77;101824.69;5057447;28;1092;-12
2022/12/26 01:56:57;;;;;;;;;;;;;;;27.32;27.21;101828.69;5057887;28;1047;-12
2022/12/26 01:59:24;;;;;;;;;;;;;;;27.18;27.40;101831.94;5057640;28;1160;-12
2022/12/26 02:01:50;;;;;;;;;;;;;;;26.61;28.63;101825.88;5057158;28;1902;-12
2022/12/26 02:06:59;;;;;;;;;;;;;;;26.78;28.28;101840.38;5059797;28;1020;-12
2022/12/26 02:09:24;;;;;;;;;;;;;;;27.25;27.20;101849.22;5075694;28;1226;-12
2022/12/26 02:11:51;;;;;;;;;;;;;;;27.14;27.58;101858.44;5057330;28;1080;-12
2022/12/26 02:14:16;;;;;;;;;;;;;;;26.71;28.18;101845.53;5056806;28;1120;-12
2022/12/26 02:16:42;;;;;;;;;;;;;;;26.73;28.31;101856.16;5075475;28;1257;-12
2022/12/26 02:19:10;;;;;;;;;;;;;;;26.80;28.43;101856.41;5077982;28;1102;-12
2022/12/26 02:21:54;;;;;;;;;;;;;;;26.96;28.31;101847.63;5060458;28;1973;-12
2022/12/26 02:24:33;;;;;;;;;;;;;;;27.22;27.10;101861.22;5078169;28;1086;-12
2022/12/26 02:27:03;;;;;;;;;;;;;;;27.09;27.13;101847.25;5061212;28;1151;-12
2022/12/26 02:29:28;;;;;;;;;;;;;;;26.79;28.30;101858.28;5061109;28;1207;-12
2022/12/26 02:31:57;;;;;;;;;;;;;;;26.57;28.59;101846.06;5078385;28;1074;-12
2022/12/26 02:34:40;;;;;;;;;;;;;;;26.87;27.99;101852.09;5078173;28;1266;-12
2022/12/26 02:37:16;;;;;;;;;;;;;;;27.15;27.66;101854.72;5078501;28;1087;-12
2022/12/26 02:39:45;;;;;;;;;;;;;;;27.17;27.55;101841.94;5061014;28;1969;-12
2022/12/26 02:42:22;;;;;;;;;;;;;;;27.00;27.70;101849.00;5078651;28;1067;-12
2022/12/26 02:47:39;;;;;;;;;;;;;;;26.53;28.56;101840.13;5051891;28;867;-12
2022/12/26 03:13:09;;;;;;;;;;;;;;;26.68;28.72;101848.53;5077731;28;1056;-12
2022/12/26 03:17:18;;;;;;;;;;;;;;;26.60;28.58;101846.63;5061115;28;1080;-12
2022/12/26 03:18:21;;;;;;;;;;;;;;;26.72;28.17;101847.25;5058157;28;1124;-12
2022/12/26 03:20:47;;;;;;;;;;;;;;;27.09;27.53;101841.88;5057113;28;1994;-12
2022/12/26 03:23:12;;;;;;;;;;;;;;;27.07;27.55;101850.13;5039467;28;1180;-12
2022/12/26 03:28:27;;;;;;;;;;;;;;;26.63;28.45;101842.75;5057407;28;997;-12
2022/12/26 03:30:52;;;;;;;;;;;;;;;26.55;28.66;101838.13;5038370;28;1266;-12
2022/12/26 03:36:12;;;;;;;;;;;;;;;27.15;27.51;101843.94;5044408;28;866;-12
2022/12/26 03:38:50;;;;;;;;;;;;;;;27.12;27.52;101852.34;5039871;28;1122;-12
2022/12/26 04:46:24;;;;;;;;;;;;;;;25.74;21.12;101853.97;5040829;28;1087;-13
2022/12/26 04:51:34;;;;;;;;;;;;;;;24.56;25.43;101869.97;5040120;28;1132;-12
2022/12/26 04:53:59;;;;;;;;;;;;;;;25.19;24.21;101876.00;5048534;28;1145;-12
2022/12/26 04:56:24;;;;;;;;;;;;;;;25.49;23.55;101888.59;5051786;28;1055;-13
2022/12/26 04:58:50;;;;;;;;;;;;;;;24.90;25.01;101898.41;5055539;28;908;-12
2022/12/26 05:09:33;;;;;;;;;;;;;;;26.18;25.10;101928.88;5055218;28;1111;-13
2022/12/26 05:11:58;;;;;;;;;;;;;;;25.66;25.67;101911.28;5055379;28;1054;-13
2022/12/26 05:14:23;;;;;;;;;;;;;;;25.51;26.15;101917.09;5055008;28;1085;-12
2022/12/26 05:30:28;;;;;;;;;;;;;;;26.47;25.58;101937.88;5060236;28;1076;-12
2022/12/26 05:35:37;;;;;;;;;;;;;;;26.68;25.18;101947.53;5070950;28;897;-13
2022/12/26 05:38:03;;;;;;;;;;;;;;;26.12;26.28;101953.75;5057448;28;1100;-12
2022/12/26 05:40:28;;;;;;;;;;;;;;;26.24;26.12;101957.94;5074938;28;1963;-12
2022/12/26 05:42:53;;;;;;;;;;;;;;;26.95;25.29;101957.47;5075549;28;1075;-12
2022/12/26 05:45:19;;;;;;;;;;;;;;;26.83;25.34;101954.16;5075450;28;1062;-12
2022/12/26 05:47:44;;;;;;;;;;;;;;;26.55;25.67;101954.16;5075155;28;897;-13
2022/12/26 05:50:09;;;;;;;;;;;;;;;26.77;25.40;101952.06;5074892;28;1008;-13
2022/12/26 05:52:35;;;;;;;;;;;;;;;25.85;26.68;101953.53;5075370;28;992;-12
2022/12/26 05:55:00;;;;;;;;;;;;;;;25.23;27.98;101960.06;5078976;28;1072;-13
2022/12/26 05:57:25;;;;;;;;;;;;;;;25.32;27.97;101947.59;5079282;28;1111;-12
2022/12/26 05:59:50;;;;;;;;;;;;;;;25.39;27.70;101948.72;5078124;28;1897;-12
2022/12/26 06:02:16;;;;;;;;;;;;;;;25.60;27.48;101950.41;5078701;28;1130;-12
2022/12/26 06:04:41;;;;;;;;;;;;;;;26.25;26.57;101954.28;5075964;28;1899;-13
2022/12/26 06:07:06;;;;;;;;;;;;;;;26.46;26.19;101947.81;5079195;28;1173;-12
2022/12/26 06:09:32;;;;;;;;;;;;;;;25.65;27.40;101956.25;5078640;28;988;-13
2022/12/26 06:11:57;;;;;;;;;;;;;;;25.49;27.63;101946.00;5078753;28;838;-12
2022/12/26 06:14:22;;;;;;;;;;;;;;;25.56;27.82;101940.91;5078636;28;1046;-12
2022/12/26 06:16:48;;;;;;;;;;;;;;;25.70;27.69;101936.97;5078468;28;1051;-13
2022/12/26 06:19:13;;;;;;;;;;;;;;;26.15;26.80;101935.44;5079125;28;1197;-12
2022/12/26 06:21:38;;;;;;;;;;;;;;;26.62;26.38;101949.88;5078336;28;1905;-12
2022/12/26 06:24:04;;;;;;;;;;;;;;;26.36;26.50;101947.84;5078298;28;977;-12
2022/12/26 06:26:29;;;;;;;;;;;;;;;25.50;28.10;101936.97;5078810;28;1080;-13
2022/12/26 06:28:54;;;;;;;;;;;;;;;25.59;27.72;101945.16;5078424;28;1036;-12
2022/12/26 06:31:21;;;;;;;;;;;;;;;25.97;27.42;101947.97;5078126;28;1024;-12
2022/12/26 06:33:46;;;;;;;;;;;;;;;26.64;26.14;101947.84;5078111;28;1863;-12
2022/12/26 06:36:13;;;;;;;;;;;;;;;27.00;25.53;101946.22;5078332;28;937;-12
2022/12/26 06:38:38;;;;;;;;;;;;;;;26.04;26.91;101949.91;5078620;28;1012;-13
2022/12/26 06:41:04;;;;;;;;;;;;;;;26.96;25.65;101953.78;5078422;28;1994;-13
2022/12/26 06:43:29;;;;;;;;;;;;;;;25.98;27.23;101946.97;5077990;28;1043;-13
2022/12/26 06:45:55;;;;;;;;;;;;;;;26.62;26.08;101955.28;5078400;28;1151;-13
2022/12/26 06:48:21;;;;;;;;;;;;;;;26.87;25.74;101952.00;5059514;28;875;-12
2022/12/26 06:50:46;;;;;;;;;;;;;;;25.66;27.47;101957.09;5077827;28;1028;-13
2022/12/26 06:53:11;;;;;;;;;;;;;;;26.12;26.93;101967.22;5077013;28;1064;-12
2022/12/26 06:55:36;;;;;;;;;;;;;;;25.92;27.48;101959.19;5078127;28;991;-12
2022/12/26 06:58:02;;;;;;;;;;;;;;;25.88;27.03;101965.84;5078211;28;1108;-12
2022/12/26 07:00:28;;;;;;;;;;;;;;;26.60;25.92;101968.06;5075916;28;1898;-12
2022/12/26 07:02:54;;;;;;;;;;;;;;;27.05;25.21;101979.06;5078012;28;1293;-12
2022/12/26 07:05:19;;;;;;;;;;;;;;;26.60;26.27;101964.50;5076949;28;2572;-12
2022/12/26 07:07:48;;;;;;;;;;;;;;;27.47;24.78;101976.75;5078082;28;1127;-13
2022/12/26 07:10:14;;;;;;;;;;;;;;;27.31;24.96;101977.44;5064898;28;1008;-13
2022/12/26 07:12:39;;;;;;;;;;;;;;;26.86;25.24;101982.72;5077131;28;897;-13
2022/12/26 07:15:04;;;;;;;;;;;;;;;26.68;25.99;101975.41;5077554;28;1035;-13
2022/12/26 07:17:30;;;;;;;;;;;;;;;26.88;25.85;101983.38;5077568;28;1068;-13
2022/12/26 07:19:55;;;;;;;;;;;;;;;26.62;26.20;101978.69;5077218;28;1906;-13
2022/12/26 07:22:20;;;;;;;;;;;;;;;26.96;25.56;101979.94;5077066;28;1295;-13
2022/12/26 07:24:46;;;;;;;;;;;;;;;27.50;24.95;101982.69;5077020;28;971;-13
2022/12/26 07:27:11;;;;;;;;;;;;;;;26.41;26.07;101967.16;5077393;28;1042;-13
2022/12/26 07:29:36;;;;;;;;;;;;;;;27.32;25.05;101973.72;5077492;28;1016;-13
2022/12/26 07:32:01;;;;;;;;;;;;;;;27.23;24.75;101980.91;5076635;28;1067;-13
2022/12/26 07:34:27;;;;;;;;;;;;;;;27.49;24.33;101975.56;5076726;28;2224;-13
2022/12/26 07:36:53;;;;;;;;;;;;;;;26.77;25.76;101979.06;5076626;28;917;-13
2022/12/26 07:39:18;;;;;;;;;;;;;;;27.46;24.75;101981.28;5077562;28;1178;-13
2022/12/26 07:41:59;;;;;;;;;;;;;;;27.32;24.59;101973.72;5076788;28;1963;-13
2022/12/26 07:44:28;;;;;;;;;;;;;;;26.28;25.95;101980.94;5065151;28;1402;-13
2022/12/26 07:46:54;;;;;;;;;;;;;;;26.74;25.80;101979.34;5076741;28;1453;-13
2022/12/26 07:49:19;;;;;;;;;;;;;;;27.07;25.09;101984.28;5077034;28;1119;-13
2022/12/26 07:51:44;;;;;;;;;;;;;;;27.47;24.50;101984.84;5076675;28;1043;-13
2022/12/26 07:54:10;;;;;;;;;;;;;;;27.11;25.02;101993.81;5076929;28;956;-13
2022/12/26 07:56:35;;;;;;;;;;;;;;;27.43;24.86;101983.44;5076388;28;1533;-13
2022/12/26 07:59:00;;;;;;;;;;;;;;;27.35;24.89;101981.53;5076490;28;1055;-13
2022/12/26 08:01:26;;;;;;;;;;;;;;;27.38;24.59;101976.66;5076201;28;1968;-13
2022/12/26 08:03:51;;;;;;;;;;;;;;;27.36;24.92;101983.25;5076469;28;2381;-13
2022/12/26 08:06:17;;;;;;;;;;;;;;;27.38;24.96;101989.31;5076661;28;1163;-13
2022/12/26 08:08:42;;;;;;;;;;;;;;;27.38;25.00;101976.66;5076239;28;1075;-13
2022/12/26 08:11:07;;;;;;;;;;;;;;;27.36;24.84;101988.66;5076038;28;1234;-13
2022/12/26 08:13:33;;;;;;;;;;;;;;;27.10;25.19;101987.53;5075725;28;988;-12
2022/12/26 08:15:59;;;;;;;;;;;;;;;27.29;24.63;101974.06;5075382;28;1274;-13
2022/12/26 08:18:24;;;;;;;;;;;;;;;27.16;25.00;101979.84;5076512;28;1011;-13
2022/12/26 08:20:50;;;;;;;;;;;;;;;27.08;25.18;101976.03;5076529;28;1967;-13
2022/12/26 08:23:15;;;;;;;;;;;;;;;27.14;25.28;101988.09;5076401;28;1035;-13
2022/12/26 08:25:40;;;;;;;;;;;;;;;27.06;24.98;101983.44;5076339;28;1004;-13
2022/12/26 08:28:06;;;;;;;;;;;;;;;27.24;25.16;101988.03;5076240;28;1087;-13
2022/12/26 08:30:31;;;;;;;;;;;;;;;27.23;25.19;101970.97;5075729;28;1027;-13
2022/12/26 08:32:56;;;;;;;;;;;;;;;27.24;25.39;101969.94;5076482;28;2396;-13
2022/12/26 08:35:21;;;;;;;;;;;;;;;27.18;24.95;101970.56;5075027;28;1194;-13
2022/12/26 08:37:47;;;;;;;;;;;;;;;27.23;25.56;101962.00;5075964;28;1091;-13
2022/12/26 08:40:12;;;;;;;;;;;;;;;27.20;25.24;101957.75;5076315;28;1945;-12
2022/12/26 08:42:37;;;;;;;;;;;;;;;27.15;25.45;101949.28;5075743;28;1012;-13
2022/12/26 08:45:03;;;;;;;;;;;;;;;27.14;25.20;101956.50;5076112;28;1086;-12
2022/12/26 08:47:28;;;;;;;;;;;;;;;27.24;25.40;101956.44;5075684;28;1051;-13
2022/12/26 08:49:53;;;;;;;;;;;;;;;27.13;25.40;101949.44;5075058;28;1074;-13
2022/12/26 08:52:19;;;;;;;;;;;;;;;27.02;25.07;101946.94;5075778;28;1123;-13
2022/12/26 08:54:44;;;;;;;;;;;;;;;27.05;25.51;101951.19;5076034;28;1075;-13
2022/12/26 08:57:09;;;;;;;;;;;;;;;27.00;25.74;101947.06;5075932;28;1079;-13
2022/12/26 08:59:35;;;;;;;;;;;;;;;27.00;25.58;101954.31;5072555;28;1052;-13
2022/12/26 09:02:00;;;;;;;;;;;;;;;26.95;25.54;101945.81;5072328;28;1906;-13
2022/12/26 09:04:25;;;;;;;;;;;;;;;27.10;25.55;101943.47;5073061;28;2538;-13
2022/12/26 09:06:50;;;;;;;;;;;;;;;27.05;25.78;101940.38;5075563;28;1166;-12
2022/12/26 09:09:16;;;;;;;;;;;;;;;27.00;25.76;101941.69;5075639;28;1206;-13
2022/12/26 09:11:41;;;;;;;;;;;;;;;27.02;25.54;101922.66;5072262;28;1039;-13
2022/12/26 09:14:07;;;;;;;;;;;;;;;27.07;25.60;101920.34;5065480;28;1191;-13
2022/12/26 09:16:35;;;;;;;;;;;;;;;26.89;25.38;101915.72;5074791;28;1704;-12
2022/12/26 09:19:00;;;;;;;;;;;;;;;27.04;25.61;101917.94;5075167;28;1071;-12
2022/12/26 09:21:26;;;;;;;;;;;;;;;26.93;25.16;101912.72;5076019;28;1922;-13
2022/12/26 09:23:58;;;;;;;;;;;;;;;26.91;25.35;101912.88;5075023;28;1204;-12
2022/12/26 09:26:23;;;;;;;;;;;;;;;26.94;25.46;101900.94;5075684;28;1077;-13
2022/12/26 09:28:48;;;;;;;;;;;;;;;26.92;25.50;101903.78;5077995;28;1194;-13
2022/12/26 09:31:20;;;;;;;;;;;;;;;27.00;25.83;101903.00;5079537;28;1484;-13
2022/12/26 09:33:48;;;;;;;;;;;;;;;26.96;25.71;101902.47;5079094;28;1951;-13
2022/12/26 09:36:14;;;;;;;;;;;;;;;27.06;25.86;101894.31;5079484;28;1040;-13
2022/12/26 09:38:40;;;;;;;;;;;;;;;27.00;25.51;101892.22;5079567;28;1004;-13
2022/12/26 09:41:17;;;;;;;;;;;;;;;27.06;25.79;101890.78;5061346;28;1901;-12
2022/12/26 09:43:54;;;;;;;;;;;;;;;27.09;25.80;101891.31;5078930;28;1035;-12
2022/12/26 09:46:20;;;;;;;;;;;;;;;27.05;25.62;101884.53;5079182;28;1094;-12
2022/12/26 09:48:49;;;;;;;;;;;;;;;27.01;25.44;101883.09;5078958;28;1087;-13
2022/12/26 09:51:14;;;;;;;;;;;;;;;27.04;25.51;101888.25;5061736;28;1063;-12
2022/12/26 09:53:42;;;;;;;;;;;;;;;26.98;25.54;101883.41;5078762;28;1038;-12
2022/12/26 09:56:10;;;;;;;;;;;;;;;27.00;25.86;101884.09;5061502;28;1187;-12
2022/12/26 09:58:49;;;;;;;;;;;;;;;27.09;25.82;101882.38;5061082;28;1123;-13
2022/12/26 10:01:22;;;;;;;;;;;;;;;27.02;25.74;101884.84;5048332;28;1975;-13
2022/12/26 10:03:51;;;;;;;;;;;;;;;27.02;25.59;101882.16;5078866;28;2205;-13
2022/12/26 10:06:17;;;;;;;;;;;;;;;27.05;25.39;101878.28;5060963;28;1165;-13
2022/12/26 10:08:46;;;;;;;;;;;;;;;26.99;25.44;101874.31;5078770;28;1397;-13
2022/12/26 10:11:17;;;;;;;;;;;;;;;27.02;25.29;101877.59;5078557;28;1151;-13
2022/12/26 10:13:46;;;;;;;;;;;;;;;27.11;25.64;101874.97;5078448;28;1095;-13
2022/12/26 10:16:31;;;;;;;;;;;;;;;27.07;25.59;101871.72;5060911;28;1059;-13
2022/12/26 10:19:02;;;;;;;;;;;;;;;27.08;25.62;101877.97;5078393;28;1044;-13
2022/12/26 10:21:46;;;;;;;;;;;;;;;27.00;25.59;101871.47;5060267;28;1961;-13
2022/12/26 10:24:14;;;;;;;;;;;;;;;26.98;25.86;101859.09;5078286;28;1043;-12
2022/12/26 10:26:40;;;;;;;;;;;;;;;27.09;25.76;101856.19;5060730;28;1066;-13
2022/12/26 10:29:09;;;;;;;;;;;;;;;27.12;25.44;101852.34;5060719;28;1116;-13
2022/12/26 10:31:36;;;;;;;;;;;;;;;27.08;25.37;101840.16;5078588;28;1058;-12
2022/12/26 10:34:04;;;;;;;;;;;;;;;27.07;25.58;101841.16;5071124;28;2492;-13
2022/12/26 10:36:39;;;;;;;;;;;;;;;27.08;25.70;101834.75;5060358;28;1079;-12
2022/12/26 10:39:04;;;;;;;;;;;;;;;27.06;25.49;101839.47;5077436;28;1138;-13
2022/12/26 10:41:41;;;;;;;;;;;;;;;27.06;25.34;101840.31;5060216;28;1902;-13
2022/12/26 10:44:08;;;;;;;;;;;;;;;27.14;25.51;101831.44;5060272;28;1080;-12
2022/12/26 10:46:52;;;;;;;;;;;;;;;27.08;25.49;101834.75;5078226;28;1090;-13
2022/12/26 10:49:18;;;;;;;;;;;;;;;27.11;25.77;101837.16;5065863;28;817;-13
2022/12/26 10:51:44;;;;;;;;;;;;;;;27.15;25.45;101843.94;5078074;28;1126;-13
2022/12/26 10:54:11;;;;;;;;;;;;;;;27.05;25.54;101835.91;5078377;28;1015;-12
2022/12/26 10:56:36;;;;;;;;;;;;;;;27.11;25.44;101834.47;5059900;28;1108;-12
2022/12/26 10:59:03;;;;;;;;;;;;;;;27.15;25.35;101827.72;5060308;28;1153;-13
2022/12/26 11:01:35;;;;;;;;;;;;;;;27.10;25.59;101827.34;5060228;28;1942;-12
2022/12/26 11:04:02;;;;;;;;;;;;;;;27.13;25.77;101827.03;5077126;28;2678;-12
2022/12/26 11:06:51;;;;;;;;;;;;;;;27.14;25.73;101818.75;5077888;28;1190;-13
2022/12/26 11:09:42;;;;;;;;;;;;;;;27.19;25.45;101812.06;5078102;28;1108;-12
2022/12/26 11:12:37;;;;;;;;;;;;;;;27.12;25.32;101807.28;5063849;28;1556;-13
2022/12/26 11:15:04;;;;;;;;;;;;;;;27.18;25.47;101805.78;5045311;28;1349;-13
2022/12/26 11:17:30;;;;;;;;;;;;;;;27.08;25.27;101799.63;5059729;28;1179;-13
2022/12/26 11:20:10;;;;;;;;;;;;;;;27.10;25.41;101798.50;5076785;28;1970;-13
2022/12/26 11:22:35;;;;;;;;;;;;;;;27.11;25.67;101788.56;5075437;28;1116;-13
2022/12/26 11:25:07;;;;;;;;;;;;;;;27.16;25.19;101788.06;5066294;28;1192;-13
2022/12/26 11:27:32;;;;;;;;;;;;;;;27.06;25.30;101790.88;5076864;28;1027;-13
2022/12/26 11:30:15;;;;;;;;;;;;;;;27.03;25.33;101789.31;5077500;28;1206;-13
2022/12/26 11:32:40;;;;;;;;;;;;;;;27.16;25.46;101785.38;5077206;28;1050;-12
2022/12/26 11:35:06;;;;;;;;;;;;;;;27.23;25.37;101778.31;5053383;28;2569;-13
2022/12/26 11:37:35;;;;;;;;;;;;;;;27.06;25.15;101778.19;5072879;28;1130;-13
2022/12/26 11:40:01;;;;;;;;;;;;;;;27.08;25.49;101773.50;5077100;28;1902;-13
2022/12/26 11:42:27;;;;;;;;;;;;;;;27.14;25.66;101770.16;5076890;28;1151;-13
2022/12/26 11:44:53;;;;;;;;;;;;;;;27.07;25.34;101763.69;5077129;28;1051;-13
2022/12/26 11:47:22;;;;;;;;;;;;;;;27.15;25.49;101762.91;5053901;28;1176;-13
2022/12/26 11:49:48;;;;;;;;;;;;;;;27.17;25.45;101763.59;5051416;28;1017;-12
2022/12/26 11:52:32;;;;;;;;;;;;;;;27.14;25.29;101772.84;5076129;28;1107;-13
2022/12/26 11:54:57;;;;;;;;;;;;;;;27.17;25.12;101765.44;5076670;28;1106;-13
2022/12/26 11:57:26;;;;;;;;;;;;;;;27.13;25.69;101779.28;5058892;28;1085;-13
2022/12/26 11:59:52;;;;;;;;;;;;;;;27.21;25.58;101762.25;5076948;28;1956;-13
2022/12/26 12:02:23;;;;;;;;;;;;;;;26.12;26.83;101756.88;5058752;28;908;-13
2022/12/26 12:04:49;;;;;;;;;;;;;;;27.46;24.99;101759.69;5075985;28;1745;-13
2022/12/26 12:07:33;;;;;;;;;;;;;;;27.39;24.80;101762.19;5076538;28;1377;-13
2022/12/26 12:09:58;;;;;;;;;;;;;;;27.34;25.44;101751.00;5076341;28;1354;-13
2022/12/26 12:12:32;;;;;;;;;;;;;;;27.81;24.95;101770.53;5076437;28;1103;-13
2022/12/26 12:15:12;;;;;;;;;;;;;;;27.82;24.86;101760.56;5076058;28;839;-13
2022/12/26 12:17:45;;;;;;;;;;;;;;;27.73;24.92;101759.69;5058544;28;1033;-13
2022/12/26 12:20:10;;;;;;;;;;;;;;;27.83;24.55;101757.69;5058607;28;1918;-13
2022/12/26 12:22:43;;;;;;;;;;;;;;;27.74;25.02;101756.81;5076056;28;1201;-13
2022/12/26 12:25:24;;;;;;;;;;;;;;;28.04;24.41;101752.88;5076193;28;1088;-13
2022/12/26 12:27:59;;;;;;;;;;;;;;;27.90;24.84;101757.91;5076161;28;1071;-13
2022/12/26 12:30:30;;;;;;;;;;;;;;;28.04;24.54;101755.56;5076002;28;1215;-13
2022/12/26 12:32:55;;;;;;;;;;;;;;;27.95;24.97;101752.84;5058185;28;1252;-13
2022/12/26 12:35:21;;;;;;;;;;;;;;;28.48;24.19;101757.19;5075764;28;1025;-13
2022/12/26 12:37:52;;;;;;;;;;;;;;;28.51;23.99;101758.72;5076011;28;1231;-13
2022/12/26 12:40:21;;;;;;;;;;;;;;;27.97;24.92;101756.25;5075813;28;1963;-13
2022/12/26 12:43:06;;;;;;;;;;;;;;;28.42;23.97;101766.00;5057980;28;1489;-13
2022/12/26 12:45:32;;;;;;;;;;;;;;;27.75;25.11;101774.75;5075342;28;1163;-13
2022/12/26 12:47:57;;;;;;;;;;;;;;;27.71;25.57;101775.25;5076631;28;1120;-13
2022/12/26 12:50:34;;;;;;;;;;;;;;;28.71;23.47;101770.09;5075603;28;1087;-12
2022/12/26 12:53:09;;;;;;;;;;;;;;;28.42;24.03;101772.25;5075171;28;1031;-12
2022/12/26 12:55:50;;;;;;;;;;;;;;;28.37;23.93;101769.19;5075717;28;1003;-13
2022/12/26 12:58:19;;;;;;;;;;;;;;;27.87;24.10;101759.09;5051877;28;1195;-13
2022/12/26 13:00:51;;;;;;;;;;;;;;;27.26;25.33;101768.03;5068147;28;1965;-13
2022/12/26 13:03:16;;;;;;;;;;;;;;;27.73;24.61;101762.38;5043576;28;1935;-13
2022/12/26 13:05:54;;;;;;;;;;;;;;;27.62;24.74;101747.28;5075442;28;976;-13
2022/12/26 13:08:31;;;;;;;;;;;;;;;28.54;23.75;101759.25;5075678;28;1087;-13
2022/12/26 13:11:08;;;;;;;;;;;;;;;27.81;24.74;101765.13;5075362;28;1084;-13
2022/12/26 13:13:49;;;;;;;;;;;;;;;28.05;24.45;101759.97;5074975;28;1124;-13
2022/12/26 13:16:15;;;;;;;;;;;;;;;28.24;23.66;101761.53;5075357;28;1192;-13
2022/12/26 13:18:48;;;;;;;;;;;;;;;27.80;24.19;101758.03;5075870;28;1039;-13
2022/12/26 13:21:14;;;;;;;;;;;;;;;28.65;23.68;101765.31;5075437;28;1983;-13
2022/12/26 13:26:32;;;;;;;;;;;;;;;27.63;25.41;101765.19;5060109;28;795;-13
2022/12/26 13:28:59;;;;;;;;;;;;;;;28.40;23.99;101765.31;5075205;28;1060;-13
2022/12/26 13:31:30;;;;;;;;;;;;;;;28.27;23.73;101758.50;5075061;28;1675;-13
2022/12/26 13:33:55;;;;;;;;;;;;;;;28.05;24.28;101755.41;5068719;28;2000;-12
2022/12/26 13:36:39;;;;;;;;;;;;;;;27.33;25.05;101752.03;5075366;28;1076;-13
2022/12/26 13:39:22;;;;;;;;;;;;;;;28.57;23.70;101756.19;5075446;28;1162;-13
2022/12/26 13:44:32;;;;;;;;;;;;;;;28.24;24.43;101751.53;5060211;28;998;-13
2022/12/26 13:46:58;;;;;;;;;;;;;;;27.95;24.34;101757.41;5075453;28;1218;-13
2022/12/26 13:49:34;;;;;;;;;;;;;;;27.68;25.03;101764.69;5075660;28;1027;-13
2022/12/26 13:52:18;;;;;;;;;;;;;;;28.10;24.35;101758.47;5073329;28;1064;-13
2022/12/26 13:54:46;;;;;;;;;;;;;;;28.71;23.66;101757.38;5074981;28;1071;-13
2022/12/26 13:57:11;;;;;;;;;;;;;;;29.22;23.19;101750.06;5074761;28;1203;-13
2022/12/26 13:59:49;;;;;;;;;;;;;;;28.34;23.69;101750.59;5062087;28;1009;-12
2022/12/26 14:02:24;;;;;;;;;;;;;;;28.15;24.22;101754.41;5074596;28;1971;-13
2022/12/26 14:05:08;;;;;;;;;;;;;;;28.20;24.70;101766.44;5061738;28;2653;-13
2022/12/26 14:07:53;;;;;;;;;;;;;;;28.70;23.78;101771.06;5074972;28;1005;-13
2022/12/26 14:10:19;;;;;;;;;;;;;;;28.56;23.86;101765.31;5074838;28;1047;-13
2022/12/26 14:13:02;;;;;;;;;;;;;;;29.55;22.78;101759.94;5074621;28;1097;-13
2022/12/26 14:15:46;;;;;;;;;;;;;;;28.45;24.02;101760.22;5077028;28;866;-13
2022/12/26 14:18:17;;;;;;;;;;;;;;;28.04;24.20;101742.06;5059609;28;1324;-13
2022/12/26 14:20:45;;;;;;;;;;;;;;;27.62;25.23;101750.84;5078548;28;1965;-12
2022/12/26 14:23:16;;;;;;;;;;;;;;;28.57;24.20;101750.78;5078602;28;1108;-13
2022/12/26 14:25:51;;;;;;;;;;;;;;;29.52;22.56;101742.19;5077368;28;1310;-13
2022/12/26 14:28:16;;;;;;;;;;;;;;;27.59;24.95;101747.63;5088927;28;1048;-13
2022/12/26 14:30:47;;;;;;;;;;;;;;;28.46;24.12;101738.41;5078002;28;1039;-12
2022/12/26 14:33:16;;;;;;;;;;;;;;;28.39;23.70;101734.72;5075910;28;2555;-12
2022/12/26 14:35:44;;;;;;;;;;;;;;;28.05;24.24;101727.50;5075185;28;1004;-12
2022/12/26 14:38:28;;;;;;;;;;;;;;;27.52;25.60;101731.19;5078318;28;1067;-13
2022/12/26 14:40:56;;;;;;;;;;;;;;;27.48;25.22;101727.97;5077950;28;1894;-13
2022/12/26 14:43:35;;;;;;;;;;;;;;;29.37;23.16;101733.06;5078231;28;1007;-13
2022/12/26 14:46:02;;;;;;;;;;;;;;;28.57;24.27;101729.13;5066335;28;1024;-13
2022/12/26 14:48:27;;;;;;;;;;;;;;;28.91;23.25;101732.63;5059445;28;1112;-13
2022/12/26 14:50:56;;;;;;;;;;;;;;;28.21;24.10;101730.25;5078294;28;923;-13
2022/12/26 14:53:27;;;;;;;;;;;;;;;27.31;25.32;101734.31;5060839;28;1051;-13
2022/12/26 14:55:55;;;;;;;;;;;;;;;28.35;24.47;101726.06;5077968;28;1218;-13
2022/12/26 14:58:30;;;;;;;;;;;;;;;29.04;23.50;101729.47;5077380;28;1488;-13
2022/12/26 15:00:55;;;;;;;;;;;;;;;29.32;23.00;101729.03;5077758;28;1893;-13
2022/12/26 15:03:39;;;;;;;;;;;;;;;28.41;23.51;101729.13;5076891;28;2264;-13
2022/12/26 15:06:24;;;;;;;;;;;;;;;27.98;24.83;101730.03;5077628;28;1080;-13